Дата Пункты Температура Давл., мм. Влажн., % Ветер Погодные явления
Воздуха Воды Направл. Скорость
15.08.15 05:00 Одесса 21.0 25.0 754 76 З 1 06 часов
15.08.15 02:00 Одесса 22.0 25.0 754 76 Пн 2 03 часа
14.08.15 08:00 Одесса 25.0 25.0 754 63 Пн-З 1 21 час
14.08.15 05:00 Одесса 29.0 25.0 754 53 Пд 2 18 часов
14.08.15 02:00 Одесса 31.0 25.0 754 51 С 3 15 часов
14.08.15 11:00 Одесса 28.0 24.0 755 60 Пн-С 2 12 часов
14.08.15 08:00 Одесса 26.0 24.0 755 67 Пн 2 09 часов
14.08.15 05:00 Одесса 21.0 24.0 755 82 Пн 1 06 часов
14.08.15 02:00 Одесса 22.0 24.0 755 73 Пн-З 1 03 часа
13.08.15 08:00 Одесса 25.0 25.0 755 53 Пн-З 1 21 час
13.08.15 05:00 Одесса 27.0 25.0 755 68 Пн-С 1 18 часов
13.08.15 02:00 Одесса 28.0 25.0 755 52 Пн-З 1 15 часов
13.08.15 11:00 Одесса 27.0 25.0 756 64 Пн 2 12 часов
13.08.15 08:00 Одесса 22.0 25.0 756 76 Пн-З 1 09 часов
13.08.15 05:00 Одесса 26.0 26.0 756 48 Пн-З 2 06 часов
13.08.15 02:00 Одесса 28.0 26.0 757 46 Пн-З 2 03 часа
12.08.15 08:00 Одесса 29.0 25.0 757 38 Пн 2 21 час
12.08.15 05:00 Одесса 29.0 26.0 757 51 Пн 2 18 часов
12.08.15 02:00 Одесса 30.0 26.0 757 48 Пн 1 15 часов
12.08.15 11:00 Одесса 28.0 25.0 757 54 Пн 1 12 часов
Количество строк
351 352 353 354 355 356 357 358 359 360
Page 359 of 481